createdAt,value
2018-03-23T00:02:24.941Z,85.78
2018-03-23T00:08:29.551Z,86.55
2018-03-23T00:14:34.396Z,86.46
2018-03-23T00:20:38.890Z,86.65
2018-03-23T00:26:43.483Z,85.78
2018-03-23T00:32:49.748Z,85.12
2018-03-23T00:38:54.481Z,85.35
2018-03-23T00:44:59.841Z,85.63
2018-03-23T00:51:04.353Z,86.30
2018-03-23T00:57:08.857Z,85.99
2018-03-23T01:03:13.545Z,86.53
2018-03-23T01:09:19.630Z,86.96
2018-03-23T01:15:24.165Z,86.90
2018-03-23T01:21:28.900Z,86.96
2018-03-23T01:27:34.317Z,86.30
2018-03-23T01:33:38.872Z,86.12
2018-03-23T01:39:43.462Z,85.52
2018-03-23T01:45:48.213Z,85.62
2018-03-23T01:51:53.619Z,86.48
2018-03-23T01:57:58.277Z,86.15
2018-03-23T02:04:02.866Z,85.89
2018-03-23T02:10:07.400Z,85.66
2018-03-23T02:16:11.985Z,85.44
2018-03-23T02:22:17.737Z,85.32
2018-03-23T02:28:23.236Z,86.12
2018-03-23T02:34:28.101Z,85.84
2018-03-23T02:40:32.860Z,85.73
2018-03-23T02:46:38.230Z,85.89
2018-03-23T02:52:42.719Z,85.65
2018-03-23T02:58:47.603Z,85.88
2018-03-23T03:04:52.879Z,85.92
2018-03-23T03:10:57.423Z,85.53
2018-03-23T03:17:01.927Z,85.79
2018-03-23T03:23:06.585Z,85.21
2018-03-23T03:29:11.081Z,85.22
2018-03-23T03:35:15.904Z,85.38
2018-03-23T03:41:20.898Z,85.23
2018-03-23T03:47:25.696Z,85.33
2018-03-23T03:53:31.023Z,84.86
2018-03-23T03:59:36.402Z,85.32
2018-03-23T04:05:41.027Z,85.23
2018-03-23T04:11:45.903Z,85.31
2018-03-23T04:17:51.231Z,84.99
2018-03-23T04:23:55.862Z,85.16
2018-03-23T04:30:00.534Z,84.75
2018-03-23T04:36:06.241Z,85.00
2018-03-23T04:42:10.907Z,85.13
2018-03-23T04:48:15.489Z,85.18
2018-03-23T04:54:20.586Z,84.30
2018-03-23T05:00:26.146Z,84.49
2018-03-23T05:06:30.685Z,84.61
2018-03-23T05:12:35.351Z,84.65
2018-03-23T05:18:39.914Z,84.61
2018-03-23T05:24:44.699Z,84.32
2018-03-23T05:30:49.296Z,85.08
2018-03-23T05:36:53.906Z,84.95
2018-03-23T05:42:58.481Z,84.74
2018-03-23T05:49:03.145Z,84.53
2018-03-23T05:55:07.790Z,84.21
2018-03-23T06:01:12.441Z,84.43
2018-03-23T06:07:18.717Z,83.89
2018-03-23T06:13:23.335Z,84.07
2018-03-23T06:19:28.271Z,84.09
2018-03-23T06:25:33.858Z,84.29
2018-03-23T06:31:38.507Z,84.14
2018-03-23T06:37:43.853Z,83.66
2018-03-23T06:43:50.076Z,83.95
2018-03-23T06:49:54.703Z,84.68
2018-03-23T06:55:59.260Z,84.33
2018-03-23T07:02:04.762Z,84.37
2018-03-23T07:08:09.358Z,84.40
2018-03-23T07:14:14.079Z,83.06
2018-03-23T07:20:19.765Z,83.86
2018-03-23T07:26:24.313Z,82.58
2018-03-23T07:32:28.961Z,82.92
2018-03-23T07:38:33.575Z,82.30
2018-03-23T07:44:38.355Z,80.80
2018-03-23T07:50:42.937Z,80.10
2018-03-23T07:56:48.256Z,79.70
2018-03-23T08:02:53.048Z,79.03
2018-03-23T08:08:57.561Z,79.17
2018-03-23T08:15:02.932Z,76.18
2018-03-23T08:21:07.544Z,77.06
2018-03-23T08:27:12.102Z,77.54
2018-03-23T08:33:17.414Z,77.55
2018-03-23T08:39:22.304Z,78.22
2018-03-23T08:45:26.821Z,78.12
2018-03-23T08:51:31.655Z,78.56
2018-03-23T08:57:36.202Z,77.81
2018-03-23T09:03:40.853Z,76.95
2018-03-23T09:09:45.404Z,73.94
2018-03-23T09:15:50.120Z,71.14
2018-03-23T09:21:54.743Z,68.85
2018-03-23T09:27:59.258Z,67.52
2018-03-23T09:34:03.869Z,66.10
2018-03-23T09:40:08.384Z,68.07
2018-03-23T09:46:13.162Z,70.42
2018-03-23T09:52:18.357Z,70.57
2018-03-23T09:58:23.691Z,70.83
2018-03-23T10:04:28.414Z,69.03
2018-03-23T10:10:32.983Z,65.30
2018-03-23T10:16:38.750Z,66.66
2018-03-23T10:22:43.241Z,62.11
2018-03-23T10:28:47.972Z,56.84
2018-03-23T10:34:52.592Z,56.58
2018-03-23T10:40:57.121Z,56.84
2018-03-23T10:47:01.675Z,59.47
2018-03-23T10:53:06.250Z,60.36
2018-03-23T10:59:10.962Z,61.51
2018-03-23T11:05:15.944Z,57.09
2018-03-23T11:11:21.828Z,57.79
2018-03-23T11:17:26.480Z,58.52
2018-03-23T11:23:31.071Z,59.54
2018-03-23T11:29:35.799Z,60.86
2018-03-23T11:35:40.514Z,61.82
2018-03-23T11:41:45.138Z,61.80
2018-03-23T11:47:50.929Z,60.66
2018-03-23T11:53:55.499Z,58.64
2018-03-23T12:00:00.459Z,58.09
2018-03-23T12:06:04.966Z,56.37
2018-03-23T12:12:10.356Z,57.24
2018-03-23T12:18:15.057Z,55.03
2018-03-23T12:24:20.353Z,55.79
2018-03-23T12:30:25.026Z,53.07
2018-03-23T12:36:29.871Z,53.92
2018-03-23T12:42:34.369Z,52.36
2018-03-23T12:48:38.885Z,51.76
2018-03-23T12:54:43.559Z,54.46
2018-03-23T13:00:48.585Z,54.16
2018-03-23T13:06:53.439Z,53.14
2018-03-23T13:12:57.923Z,56.80
2018-03-23T13:19:02.411Z,58.36
2018-03-23T13:25:06.944Z,59.61
2018-03-23T13:31:11.504Z,63.93
2018-03-23T13:37:16.480Z,66.11
2018-03-23T13:43:21.951Z,66.44
2018-03-23T13:49:26.433Z,65.74
2018-03-23T13:55:30.987Z,64.77
2018-03-23T14:01:41.547Z,65.09
2018-03-23T14:07:46.527Z,65.33
2018-03-23T14:13:51.264Z,64.95
2018-03-23T14:19:56.539Z,63.17
2018-03-23T14:26:02.041Z,63.56
2018-03-23T14:32:06.895Z,64.57
2018-03-23T14:38:12.430Z,64.09
2018-03-23T14:44:18.590Z,65.48
2018-03-23T14:50:23.253Z,66.24
2018-03-23T14:56:28.698Z,66.01
2018-03-23T15:02:33.396Z,65.95
2018-03-23T15:08:37.973Z,65.60
2018-03-23T15:14:43.456Z,67.20
2018-03-23T15:20:48.113Z,66.53
2018-03-23T15:26:52.719Z,68.40
2018-03-23T15:32:57.245Z,69.28
2018-03-23T15:39:02.660Z,69.72
2018-03-23T15:45:07.956Z,69.28
2018-03-23T15:51:12.479Z,69.96
2018-03-23T15:57:17.589Z,68.93
2018-03-23T16:03:22.460Z,69.39
2018-03-23T16:09:27.312Z,69.01
2018-03-23T16:15:32.764Z,69.61
2018-03-23T16:21:38.873Z,70.51
2018-03-23T16:27:43.530Z,71.09
2018-03-23T16:33:48.806Z,71.41
2018-03-23T16:39:53.947Z,71.75
2018-03-23T16:45:58.592Z,71.72
2018-03-23T16:52:03.126Z,71.87
2018-03-23T16:58:08.567Z,72.20
2018-03-23T17:04:13.084Z,72.45
2018-03-23T17:10:18.710Z,72.68
2018-03-23T17:16:23.393Z,73.68
2018-03-23T17:22:27.876Z,73.84
2018-03-23T17:28:33.139Z,74.09
2018-03-23T17:34:37.643Z,74.66
2018-03-23T17:40:42.312Z,74.96
2018-03-23T17:46:46.900Z,75.29
2018-03-23T17:52:51.432Z,75.70
2018-03-23T17:58:55.943Z,75.74
2018-03-23T18:05:00.608Z,76.38
2018-03-23T18:11:05.975Z,76.81
2018-03-23T18:17:10.524Z,77.07
2018-03-23T18:23:16.460Z,77.48
2018-03-23T18:29:21.211Z,77.64
2018-03-23T18:35:25.761Z,77.52
2018-03-23T18:41:30.670Z,77.41
2018-03-23T18:47:35.211Z,77.89
2018-03-23T18:53:39.855Z,78.29
2018-03-23T18:59:44.581Z,78.38
2018-03-23T19:05:49.667Z,78.46
2018-03-23T19:11:54.231Z,77.90
2018-03-23T19:17:58.770Z,78.41
2018-03-23T19:24:03.266Z,78.05
2018-03-23T19:30:07.838Z,78.35
2018-03-23T19:36:13.073Z,78.37
2018-03-23T19:42:18.134Z,78.42
2018-03-23T19:48:22.653Z,78.59
2018-03-23T19:54:27.325Z,77.67
2018-03-23T20:00:31.899Z,78.30
2018-03-23T20:06:36.573Z,78.86
2018-03-23T20:12:41.190Z,78.84
2018-03-23T20:18:46.650Z,79.04
2018-03-23T20:24:51.321Z,78.58
2018-03-23T20:30:56.319Z,78.63
2018-03-23T20:37:00.785Z,78.21
2018-03-23T20:43:06.030Z,77.98
2018-03-23T20:49:10.595Z,78.23
2018-03-23T20:55:15.338Z,78.27
2018-03-23T21:01:20.526Z,78.10
2018-03-23T21:07:25.159Z,78.27
2018-03-23T21:13:29.628Z,78.13
2018-03-23T21:19:34.224Z,78.04
2018-03-23T21:25:39.015Z,77.83
2018-03-23T21:31:43.472Z,78.33
2018-03-23T21:37:49.718Z,78.64
2018-03-23T21:43:54.497Z,79.26
2018-03-23T21:50:00.101Z,79.38
2018-03-23T21:56:04.582Z,79.13
2018-03-23T22:02:09.146Z,79.30
2018-03-23T22:08:13.745Z,78.93
2018-03-23T22:14:18.358Z,79.01
2018-03-23T22:20:22.903Z,78.96
2018-03-23T22:26:27.419Z,79.38
2018-03-23T22:32:32.738Z,78.86
2018-03-23T22:38:37.559Z,78.64
2018-03-23T22:44:42.338Z,78.93
2018-03-23T22:50:47.219Z,78.92
2018-03-23T22:56:52.155Z,79.11
2018-03-23T23:02:56.696Z,79.36
2018-03-23T23:09:01.197Z,79.29
2018-03-23T23:15:06.446Z,79.54
2018-03-23T23:21:11.145Z,79.61
2018-03-23T23:27:16.443Z,79.81
2018-03-23T23:33:21.359Z,79.93
2018-03-23T23:39:26.112Z,80.24
2018-03-23T23:45:30.683Z,80.17
2018-03-23T23:51:35.607Z,80.22
2018-03-23T23:57:41.039Z,80.34
